createdAt,value
2018-10-06T00:04:43.646Z,97159.38
2018-10-06T00:09:38.494Z,97155.72
2018-10-06T00:14:33.337Z,97158.66
2018-10-06T00:19:28.162Z,97160.05
2018-10-06T00:24:22.990Z,97155.98
2018-10-06T00:29:17.854Z,97146.45
2018-10-06T00:34:12.749Z,97133.31
2018-10-06T00:39:08.386Z,97124.06
2018-10-06T00:44:03.205Z,97122.34
2018-10-06T00:48:58.021Z,97120.67
2018-10-06T00:53:52.870Z,97119.95
2018-10-06T00:58:47.644Z,97110.43
2018-10-06T01:03:42.470Z,97109.46
2018-10-06T01:08:37.800Z,97105.72
2018-10-06T01:13:33.496Z,97102.04
2018-10-06T01:18:28.249Z,97096.55
2018-10-06T01:23:23.085Z,97095.50
2018-10-06T01:28:17.879Z,97088.93
2018-10-06T01:33:12.722Z,97090.97
2018-10-06T01:38:07.556Z,97095.88
2018-10-06T01:43:05.307Z,97090.42
2018-10-06T01:48:00.157Z,97081.57
2018-10-06T01:52:54.998Z,97079.07
2018-10-06T01:57:49.850Z,97073.34
2018-10-06T02:02:44.666Z,97072.72
2018-10-06T02:07:39.495Z,97076.67
2018-10-06T02:12:34.364Z,97075.84
2018-10-06T02:17:29.175Z,97071.20
2018-10-06T02:22:24.559Z,97071.20
2018-10-06T02:27:19.373Z,97077.90
2018-10-06T02:32:14.305Z,97086.13
2018-10-06T02:37:09.271Z,97085.66
2018-10-06T02:42:04.236Z,97095.33
2018-10-06T02:46:59.126Z,97084.21
2018-10-06T02:51:54.061Z,97083.02
2018-10-06T02:56:48.893Z,97084.69
2018-10-06T03:01:43.780Z,97085.88
2018-10-06T03:06:38.655Z,97073.73
2018-10-06T03:11:33.606Z,97060.25
2018-10-06T03:16:28.474Z,97057.25
2018-10-06T03:21:23.716Z,97062.16
2018-10-06T03:26:18.724Z,97050.34
2018-10-06T03:31:13.600Z,97039.70
2018-10-06T03:36:08.645Z,97043.77
2018-10-06T03:41:03.518Z,97047.09
2018-10-06T03:45:58.414Z,97062.62
2018-10-06T03:50:53.318Z,97049.70
2018-10-06T03:55:48.123Z,97040.62
2018-10-06T04:00:42.991Z,97040.52
2018-10-06T04:05:37.842Z,97042.08
2018-10-06T04:10:32.633Z,97051.75
2018-10-06T04:15:27.525Z,97049.97
2018-10-06T04:20:22.380Z,97043.14
2018-10-06T04:25:17.240Z,97027.75
2018-10-06T04:30:12.125Z,97022.72
2018-10-06T04:35:07.004Z,97017.33
2018-10-06T04:40:01.800Z,97015.92
2018-10-06T04:44:56.654Z,97007.66
2018-10-06T04:49:51.462Z,97005.90
2018-10-06T04:54:46.431Z,96995.95
2018-10-06T04:59:41.317Z,96989.87
2018-10-06T05:04:36.209Z,96987.87
2018-10-06T05:09:31.681Z,96986.91
2018-10-06T05:14:33.136Z,96996.80
2018-10-06T05:19:27.943Z,97005.87
2018-10-06T05:24:22.798Z,97018.33
2018-10-06T05:29:18.585Z,97026.57
2018-10-06T05:34:13.558Z,97032.31
2018-10-06T05:39:10.728Z,97029.69
2018-10-06T05:44:05.626Z,97028.84
2018-10-06T05:49:00.491Z,97032.92
2018-10-06T05:53:55.624Z,97033.02
2018-10-06T05:58:50.541Z,97023.47
2018-10-06T06:03:45.410Z,97015.84
2018-10-06T06:08:40.266Z,97022.75
2018-10-06T06:13:35.122Z,97023.08
2018-10-06T06:18:29.938Z,97025.95
2018-10-06T06:23:24.811Z,97023.17
2018-10-06T06:28:19.688Z,97029.86
2018-10-06T06:33:14.529Z,97025.30
2018-10-06T06:38:09.369Z,97023.48
2018-10-06T06:43:04.326Z,97037.59
2018-10-06T06:48:01.081Z,97027.69
2018-10-06T06:52:55.935Z,97032.56
2018-10-06T06:57:50.739Z,97039.84
2018-10-06T07:02:45.562Z,97034.32
2018-10-06T07:07:40.387Z,97043.39
2018-10-06T07:12:35.248Z,97052.31
2018-10-06T07:17:30.051Z,97051.08
2018-10-06T07:22:24.918Z,97043.20
2018-10-06T07:27:19.765Z,97050.84
2018-10-06T07:32:15.148Z,97051.16
2018-10-06T07:37:10.141Z,97046.30
2018-10-06T07:42:05.097Z,97046.02
2018-10-06T07:46:59.909Z,97044.56
2018-10-06T07:51:54.818Z,97047.60
2018-10-06T07:56:49.672Z,97036.33
2018-10-06T08:01:44.451Z,97026.98
2018-10-06T08:06:39.342Z,97026.20
2018-10-06T08:11:34.243Z,97037.36
2018-10-06T08:16:29.028Z,97029.66
2018-10-06T08:21:23.867Z,97015.75
2018-10-06T08:26:18.726Z,97017.55
2018-10-06T08:31:13.539Z,97007.64
2018-10-06T08:36:08.381Z,97002.11
2018-10-06T08:41:03.182Z,97002.75
2018-10-06T08:45:58.097Z,97005.44
2018-10-06T08:50:52.964Z,97010.77
2018-10-06T08:55:47.804Z,97007.03
2018-10-06T09:00:42.833Z,96998.71
2018-10-06T09:05:37.658Z,96991.84
2018-10-06T09:10:32.627Z,96990.58
2018-10-06T09:15:27.507Z,96996.07
2018-10-06T09:20:22.318Z,96992.88
2018-10-06T09:25:17.287Z,96988.42
2018-10-06T09:30:12.185Z,96984.31
2018-10-06T09:35:07.145Z,96984.02
2018-10-06T09:40:01.967Z,96972.50
2018-10-06T09:44:56.821Z,96959.33
2018-10-06T09:49:51.656Z,96958.45
2018-10-06T09:54:46.548Z,96948.38
2018-10-06T09:59:41.378Z,96946.11
2018-10-06T10:04:36.243Z,96936.09
2018-10-06T10:09:31.078Z,96930.22
2018-10-06T10:14:25.834Z,96928.31
2018-10-06T10:19:20.677Z,96918.23
2018-10-06T10:24:15.475Z,96906.58
2018-10-06T10:29:10.306Z,96901.36
2018-10-06T10:34:05.127Z,96900.41
2018-10-06T10:38:59.923Z,96898.09
2018-10-06T10:43:54.821Z,96894.20
2018-10-06T10:48:49.740Z,96884.70
2018-10-06T10:53:44.569Z,96873.78
2018-10-06T10:58:39.394Z,96856.08
2018-10-06T11:03:34.244Z,96853.61
2018-10-06T11:08:29.106Z,96851.75
2018-10-06T11:13:24.009Z,96843.06
2018-10-06T11:18:18.890Z,96826.06
2018-10-06T11:23:13.701Z,96824.27
2018-10-06T11:28:09.263Z,96822.31
2018-10-06T11:33:04.141Z,96813.00
2018-10-06T11:37:58.970Z,96807.34
2018-10-06T11:42:53.854Z,96791.33
2018-10-06T11:47:49.204Z,96783.02
2018-10-06T11:52:44.036Z,96771.63
2018-10-06T11:57:38.866Z,96757.73
2018-10-06T12:02:34.022Z,96742.80
2018-10-06T12:07:28.925Z,96731.01
2018-10-06T12:12:24.281Z,96726.58
2018-10-06T12:17:19.096Z,96715.79
2018-10-06T12:22:13.985Z,96708.84
2018-10-06T12:27:08.839Z,96708.00
2018-10-06T12:32:03.677Z,96702.86
2018-10-06T12:36:58.541Z,96691.45
2018-10-06T12:41:53.574Z,96676.55
2018-10-06T12:46:48.410Z,96673.69
2018-10-06T12:51:43.294Z,96664.91
2018-10-06T12:56:38.264Z,96660.42
2018-10-06T13:01:33.127Z,96658.60
2018-10-06T13:06:27.964Z,96656.95
2018-10-06T13:11:22.822Z,96653.47
2018-10-06T13:16:17.694Z,96650.32
2018-10-06T13:21:12.521Z,96652.30
2018-10-06T13:26:07.389Z,96649.98
2018-10-06T13:31:02.168Z,96645.02
2018-10-06T13:35:56.953Z,96637.72
2018-10-06T13:40:51.879Z,96631.42
2018-10-06T13:45:46.753Z,96626.30
2018-10-06T13:50:41.585Z,96623.16
2018-10-06T13:55:37.111Z,96619.86
2018-10-06T14:00:32.033Z,96614.03
2018-10-06T14:05:26.897Z,96608.41
2018-10-06T14:10:21.734Z,96608.58
2018-10-06T14:15:16.574Z,96605.42
2018-10-06T14:20:11.396Z,96605.92
2018-10-06T14:25:06.274Z,96597.48
2018-10-06T14:30:01.087Z,96596.82
2018-10-06T14:34:55.981Z,96586.05
2018-10-06T14:39:50.842Z,96581.03
2018-10-06T14:44:45.689Z,96581.98
2018-10-06T14:49:40.504Z,96578.83
2018-10-06T14:54:35.395Z,96575.03
2018-10-06T14:59:30.238Z,96582.67
2018-10-06T15:04:25.142Z,96567.77
2018-10-06T15:09:20.132Z,96567.77
2018-10-06T15:14:14.957Z,96559.68
2018-10-06T15:19:09.761Z,96556.56
2018-10-06T15:24:04.625Z,96550.76
2018-10-06T15:28:59.885Z,96548.61
2018-10-06T15:33:54.722Z,96544.92
2018-10-06T15:38:49.552Z,96548.78
2018-10-06T15:43:44.441Z,96544.48
2018-10-06T15:48:39.693Z,96540.52
2018-10-06T15:53:34.858Z,96538.03
2018-10-06T15:58:29.699Z,96537.72
2018-10-06T16:03:24.520Z,96538.03
2018-10-06T16:08:19.358Z,96550.59
2018-10-06T16:13:14.191Z,96537.52
2018-10-06T16:18:09.102Z,96533.06
2018-10-06T16:23:03.995Z,96538.03
2018-10-06T16:27:58.852Z,96533.35
2018-10-06T16:32:53.778Z,96532.98
2018-10-06T16:37:48.692Z,96529.47
2018-10-06T16:42:44.501Z,96529.97
2018-10-06T16:47:39.388Z,96531.61
2018-10-06T16:52:34.253Z,96526.60
2018-10-06T16:57:29.135Z,96532.19
2018-10-06T17:02:23.989Z,96536.74
2018-10-06T17:07:18.865Z,96533.94
2018-10-06T17:12:13.754Z,96537.88
2018-10-06T17:17:08.628Z,96536.17
2018-10-06T17:22:03.587Z,96536.47
2018-10-06T17:26:58.549Z,96542.86
2018-10-06T17:31:53.429Z,96540.34
2018-10-06T17:36:48.338Z,96541.27
2018-10-06T17:41:43.228Z,96549.02
2018-10-06T17:46:38.093Z,96552.15
2018-10-06T17:51:32.934Z,96553.22
2018-10-06T17:56:27.781Z,96553.42
2018-10-06T18:01:25.122Z,96547.44
2018-10-06T18:06:20.007Z,96545.75
2018-10-06T18:11:15.434Z,96538.45
2018-10-06T18:16:10.286Z,96543.55
2018-10-06T18:21:06.734Z,96543.26
2018-10-06T18:26:02.546Z,96550.09
2018-10-06T18:30:57.357Z,96549.36
2018-10-06T18:35:52.330Z,96547.16
2018-10-06T18:40:47.198Z,96554.11
2018-10-06T18:45:42.041Z,96563.19
2018-10-06T18:50:36.996Z,96560.42
2018-10-06T18:55:31.808Z,96561.41
2018-10-06T19:00:26.748Z,96568.28
2018-10-06T19:05:21.623Z,96567.86
2018-10-06T19:10:16.559Z,96572.38
2018-10-06T19:15:11.394Z,96572.01
2018-10-06T19:20:06.709Z,96571.47
2018-10-06T19:25:01.581Z,96578.95
2018-10-06T19:29:56.486Z,96575.29
2018-10-06T19:34:51.422Z,96583.72
2018-10-06T19:39:46.370Z,96590.84
2018-10-06T19:44:41.253Z,96587.44
2018-10-06T19:49:37.939Z,96582.93
2018-10-06T19:54:32.819Z,96587.56
2018-10-06T19:59:27.687Z,96589.52
2018-10-06T20:04:22.658Z,96598.92
2018-10-06T20:09:17.976Z,96606.86
2018-10-06T20:14:12.998Z,96604.45
2018-10-06T20:19:07.942Z,96602.20
2018-10-06T20:24:03.117Z,96603.68
2018-10-06T20:28:58.028Z,96605.61
2018-10-06T20:33:52.938Z,96608.19
2018-10-06T20:38:47.927Z,96615.45
2018-10-06T20:43:42.772Z,96614.38
2018-10-06T20:48:37.622Z,96607.27
2018-10-06T20:53:32.779Z,96608.77
2018-10-06T20:58:27.646Z,96607.78
2018-10-06T21:03:22.482Z,96606.73
2018-10-06T21:08:17.423Z,96614.48
2018-10-06T21:13:12.275Z,96621.12
2018-10-06T21:18:07.179Z,96615.35
2018-10-06T21:25:33.953Z,96605.84
2018-10-06T21:30:29.076Z,96600.48
2018-10-06T21:35:24.192Z,96605.31
2018-10-06T21:40:19.183Z,96603.55
2018-10-06T21:45:14.196Z,96597.94
2018-10-06T21:50:09.162Z,96600.61
2018-10-06T21:55:04.069Z,96596.78
2018-10-06T21:59:58.994Z,96591.58
2018-10-06T22:04:53.898Z,96586.70
2018-10-06T22:09:48.776Z,96582.91
2018-10-06T22:14:43.704Z,96583.91
2018-10-06T22:19:38.568Z,96581.19
2018-10-06T22:24:33.416Z,96578.95
2018-10-06T22:29:28.362Z,96578.02
2018-10-06T22:34:23.199Z,96577.92
2018-10-06T22:39:18.003Z,96578.27
2018-10-06T22:44:12.904Z,96575.80
2018-10-06T22:49:07.732Z,96575.03
2018-10-06T22:54:02.543Z,96573.77
2018-10-06T22:58:57.350Z,96569.55
2018-10-06T23:03:52.281Z,96576.79
2018-10-06T23:08:47.104Z,96571.72
2018-10-06T23:13:41.959Z,96570.94
2018-10-06T23:18:36.844Z,96561.66
2018-10-06T23:23:31.667Z,96567.11
2018-10-06T23:28:26.495Z,96562.48
2018-10-06T23:33:21.337Z,96568.88
2018-10-06T23:38:16.162Z,96566.66
2018-10-06T23:43:11.036Z,96563.14
2018-10-06T23:48:05.869Z,96562.06
2018-10-06T23:53:00.676Z,96564.77
2018-10-06T23:57:56.009Z,96566.82
